Time;durP1;ratioP1;P1;durP2;ratioP2;P2;SDS_P1;SDS_P2;PMS_P1;PMS_P2;Temp;Humidity;BMP_temperature;BMP_pressure;BME280_temperature;BME280_humidity;BME280_pressure;Samples;Min_cycle;Max_cycle;Signal;HPM_P1;HPM_P2
2021/12/16 00:02:40;;;;;;;230.10;85.93;;;;;;;;;;5109881;28;20037;-69
2021/12/16 00:08:01;;;;;;;226.43;78.60;;;;;;;;;;5081976;28;20027;-69
2021/12/16 00:30:08;;;;;;;231.67;79.47;;;;;;;;;;5111167;28;20037;-68
2021/12/16 00:32:48;;;;;;;226.63;78.67;;;;;;;;;;5099646;28;20468;-68
2021/12/16 00:35:16;;;;;;;220.50;81.87;;;;;;;;;;5111365;28;20499;-68
2021/12/16 00:37:43;;;;;;;204.47;79.87;;;;;;;;;;5112336;28;20035;-68
2021/12/16 00:40:11;;;;;;;201.53;75.87;;;;;;;;;;5113131;28;20032;-69
2021/12/16 00:42:54;;;;;;;222.03;79.07;;;;;;;;;;5109182;28;20542;-68
2021/12/16 00:45:34;;;;;;;236.13;83.67;;;;;;;;;;5109032;28;20381;-70
2021/12/16 00:48:08;;;;;;;208.67;76.87;;;;;;;;;;5112936;28;20096;-69
2021/12/16 00:55:53;;;;;;;200.07;76.77;;;;;;;;;;5111369;28;20038;-69
2021/12/16 00:58:23;;;;;;;195.50;71.80;;;;;;;;;;5110127;28;20032;-69
2021/12/16 01:00:56;;;;;;;202.27;76.93;;;;;;;;;;5106198;28;20035;-68
2021/12/16 01:06:43;;;;;;;189.83;71.30;;;;;;;;;;5108399;28;20035;-68
2021/12/16 01:47:43;;;;;;;232.37;85.30;;;;;;;;;;5115712;28;20070;-69
2021/12/16 01:50:19;;;;;;;261.93;91.20;;;;;;;;;;5116235;28;20040;-70
2021/12/16 01:55:30;;;;;;;250.10;89.13;;;;;;;;;;5113321;28;20035;-68
2021/12/16 01:57:59;;;;;;;200.77;80.27;;;;;;;;;;5113017;28;20040;-69
2021/12/16 02:00:52;;;;;;;215.17;79.37;;;;;;;;;;5112102;28;20043;-68
2021/12/16 02:03:25;;;;;;;210.60;79.77;;;;;;;;;;5113262;28;20070;-69
2021/12/16 02:10:53;;;;;;;207.83;81.40;;;;;;;;;;5113938;28;20499;-69
2021/12/16 02:37:33;;;;;;;219.73;89.83;;;;;;;;;;5112226;28;20077;-69
2021/12/16 02:40:00;;;;;;;219.27;87.00;;;;;;;;;;5113414;28;20114;-68
2021/12/16 02:42:36;;;;;;;192.60;77.63;;;;;;;;;;5106068;28;20477;-69
2021/12/16 02:50:23;;;;;;;191.07;74.97;;;;;;;;;;5104865;28;20042;-70
2021/12/16 02:52:49;;;;;;;149.33;66.10;;;;;;;;;;5107354;28;20441;-73
2021/12/16 02:55:17;;;;;;;175.43;70.27;;;;;;;;;;5109895;28;20036;-71
2021/12/16 02:58:00;;;;;;;175.20;72.23;;;;;;;;;;5103645;28;20032;-69
2021/12/16 03:00:27;;;;;;;194.00;73.50;;;;;;;;;;5102484;28;20457;-71
2021/12/16 03:02:54;;;;;;;171.37;70.63;;;;;;;;;;5103229;28;20051;-70
2021/12/16 03:05:22;;;;;;;174.23;68.60;;;;;;;;;;5108147;28;20046;-70
2021/12/16 03:07:49;;;;;;;186.57;71.63;;;;;;;;;;5101296;28;20020;-69
2021/12/16 03:13:03;;;;;;;187.00;72.40;;;;;;;;;;5105634;27;20389;-70
2021/12/16 03:20:48;;;;;;;187.00;70.60;;;;;;;;;;5101019;27;20501;-68
2021/12/16 03:23:34;;;;;;;178.33;70.00;;;;;;;;;;5100102;28;20043;-71
2021/12/16 03:38:50;;;;;;;183.10;72.00;;;;;;;;;;5107841;27;20031;-70
2021/12/16 03:41:17;;;;;;;190.50;75.10;;;;;;;;;;5096344;27;20494;-71
2021/12/16 03:43:45;;;;;;;193.77;75.97;;;;;;;;;;5105529;27;20143;-70
2021/12/16 03:48:46;;;;;;;189.73;73.50;;;;;;;;;;5100598;27;20035;-73
2021/12/16 03:51:18;;;;;;;251.60;89.53;;;;;;;;;;5098473;28;20121;-71
2021/12/16 03:53:45;;;;;;;237.33;83.57;;;;;;;;;;5105788;28;20390;-76
2021/12/16 03:56:13;;;;;;;233.93;83.77;;;;;;;;;;5105334;27;20042;-74
2021/12/16 03:58:40;;;;;;;227.13;84.27;;;;;;;;;;5108944;27;20204;-74
2021/12/16 04:01:08;;;;;;;234.57;82.93;;;;;;;;;;5106403;28;20027;-73
2021/12/16 04:03:35;;;;;;;251.20;87.47;;;;;;;;;;5105905;27;20035;-71
2021/12/16 04:06:01;;;;;;;230.33;85.40;;;;;;;;;;5093716;28;20042;-72
2021/12/16 04:08:28;;;;;;;216.63;82.67;;;;;;;;;;5097616;27;20280;-70
2021/12/16 04:11:06;;;;;;;216.97;81.43;;;;;;;;;;5098541;28;20059;-71
2021/12/16 04:13:40;;;;;;;220.23;85.70;;;;;;;;;;5098557;28;20028;-70
2021/12/16 04:16:07;;;;;;;231.93;90.07;;;;;;;;;;5097143;27;20100;-69
2021/12/16 04:18:33;;;;;;;238.93;88.20;;;;;;;;;;5099220;28;20027;-73
2021/12/16 04:21:00;;;;;;;232.73;86.77;;;;;;;;;;5101414;28;20057;-72
2021/12/16 04:23:26;;;;;;;242.13;90.57;;;;;;;;;;5095197;28;20160;-72
2021/12/16 04:25:53;;;;;;;233.30;89.03;;;;;;;;;;5100150;28;21269;-71
2021/12/16 04:28:22;;;;;;;241.70;88.40;;;;;;;;;;5101764;28;20701;-70
2021/12/16 04:30:48;;;;;;;225.97;88.43;;;;;;;;;;5101303;28;20034;-73
2021/12/16 04:33:15;;;;;;;250.77;91.37;;;;;;;;;;5100658;28;20084;-70
2021/12/16 04:35:42;;;;;;;251.93;89.27;;;;;;;;;;5094974;27;20108;-72
2021/12/16 04:38:10;;;;;;;262.17;93.47;;;;;;;;;;5095884;28;20046;-72
2021/12/16 04:40:36;;;;;;;223.93;87.83;;;;;;;;;;5094549;28;20546;-70
2021/12/16 04:43:04;;;;;;;222.17;86.17;;;;;;;;;;5095980;28;20063;-73
2021/12/16 04:45:32;;;;;;;233.60;89.83;;;;;;;;;;5095833;28;20034;-73
2021/12/16 04:47:58;;;;;;;237.60;90.77;;;;;;;;;;5098581;27;20362;-73
2021/12/16 04:50:25;;;;;;;241.43;96.13;;;;;;;;;;5099053;28;20042;-72
2021/12/16 04:52:51;;;;;;;236.23;94.13;;;;;;;;;;5098598;28;20054;-69
2021/12/16 04:55:23;;;;;;;232.83;91.17;;;;;;;;;;5105344;27;20037;-70
2021/12/16 04:57:50;;;;;;;223.70;88.20;;;;;;;;;;5102145;28;20114;-70
2021/12/16 05:00:18;;;;;;;227.25;92.95;;;;;;;;;;5096443;28;20577;-72
2021/12/16 05:02:45;;;;;;;254.07;99.20;;;;;;;;;;5098321;28;20035;-70
2021/12/16 05:05:12;;;;;;;235.27;95.65;;;;;;;;;;5096011;28;20055;-70
2021/12/16 05:07:40;;;;;;;236.23;95.30;;;;;;;;;;5098678;28;20085;-71
2021/12/16 05:10:10;;;;;;;229.35;98.18;;;;;;;;;;5099169;28;20051;-69
2021/12/16 05:12:45;;;;;;;248.18;99.60;;;;;;;;;;5105297;28;20278;-70
2021/12/16 05:15:14;;;;;;;242.20;99.22;;;;;;;;;;5102706;28;20046;-71
2021/12/16 05:17:47;;;;;;;258.30;106.07;;;;;;;;;;5098400;28;20032;-70
2021/12/16 05:20:16;;;;;;;260.27;102.33;;;;;;;;;;5098922;28;20036;-71
2021/12/16 05:25:51;;;;;;;259.65;102.70;;;;;;;;;;5104833;28;20054;-69
2021/12/16 05:28:19;;;;;;;239.73;99.30;;;;;;;;;;5105052;28;20063;-68
2021/12/16 05:30:46;;;;;;;238.53;99.80;;;;;;;;;;5105912;28;20497;-72
2021/12/16 05:33:12;;;;;;;242.40;98.37;;;;;;;;;;5099896;28;21534;-71
2021/12/16 05:35:39;;;;;;;268.43;100.77;;;;;;;;;;5100749;28;20373;-70
2021/12/16 05:38:06;;;;;;;275.67;103.83;;;;;;;;;;5100153;28;20374;-72
2021/12/16 05:40:33;;;;;;;252.83;103.57;;;;;;;;;;5092260;28;20469;-70
2021/12/16 05:43:01;;;;;;;242.70;98.07;;;;;;;;;;5099297;28;20485;-69
2021/12/16 05:45:28;;;;;;;265.88;102.97;;;;;;;;;;5100759;28;20023;-70
2021/12/16 05:48:05;;;;;;;254.23;102.80;;;;;;;;;;5102049;28;20072;-70
2021/12/16 05:50:36;;;;;;;280.35;105.32;;;;;;;;;;5102524;28;20031;-71
2021/12/16 05:53:03;;;;;;;277.97;109.67;;;;;;;;;;5103072;28;21414;-71
2021/12/16 05:55:31;;;;;;;297.23;108.35;;;;;;;;;;5098537;28;20423;-69
2021/12/16 05:58:00;;;;;;;290.17;111.70;;;;;;;;;;5106956;28;20101;-69
2021/12/16 06:00:31;;;;;;;290.17;107.67;;;;;;;;;;5106333;28;20585;-72
2021/12/16 06:02:57;;;;;;;289.37;104.77;;;;;;;;;;5107305;28;20032;-70
2021/12/16 06:05:24;;;;;;;283.60;104.03;;;;;;;;;;5106223;28;20060;-71
2021/12/16 06:07:50;;;;;;;267.43;104.33;;;;;;;;;;5102634;28;20028;-72
2021/12/16 06:13:03;;;;;;;274.90;106.83;;;;;;;;;;5103212;28;20042;-70
2021/12/16 06:16:00;;;;;;;250.87;101.10;;;;;;;;;;5103095;28;20035;-69
2021/12/16 06:27:09;;;;;;;240.45;104.80;;;;;;;;;;5109445;28;20034;-71
2021/12/16 06:29:29;;;;;;;226.45;99.70;;;;;;;;;;5107850;28;20436;-71
2021/12/16 06:31:55;;;;;;;227.48;99.65;;;;;;;;;;5107860;28;20381;-70
2021/12/16 06:34:22;;;;;;;220.95;98.88;;;;;;;;;;5109686;28;20441;-71
2021/12/16 06:36:48;;;;;;;236.77;101.95;;;;;;;;;;5109077;28;20020;-72
2021/12/16 06:39:15;;;;;;;228.45;104.53;;;;;;;;;;5109562;28;20024;-71
2021/12/16 06:41:41;;;;;;;227.88;101.40;;;;;;;;;;5102129;28;20043;-73
2021/12/16 06:44:18;;;;;;;222.95;101.53;;;;;;;;;;5109287;28;20040;-71
2021/12/16 06:46:46;;;;;;;245.05;107.63;;;;;;;;;;5106274;28;20077;-70
2021/12/16 06:49:15;;;;;;;228.27;99.25;;;;;;;;;;5108097;28;20073;-70
2021/12/16 06:51:51;;;;;;;225.02;102.47;;;;;;;;;;5105265;28;20036;-70
2021/12/16 06:54:24;;;;;;;225.93;100.60;;;;;;;;;;5107418;28;20032;-71
2021/12/16 06:59:32;;;;;;;229.02;101.05;;;;;;;;;;5108988;28;20019;-70
2021/12/16 07:02:07;;;;;;;226.15;99.07;;;;;;;;;;5108032;28;20081;-69
2021/12/16 07:04:34;;;;;;;219.43;100.43;;;;;;;;;;5106975;28;20032;-72
2021/12/16 07:07:01;;;;;;;215.55;95.90;;;;;;;;;;5101281;28;20036;-72
2021/12/16 07:09:28;;;;;;;205.90;93.88;;;;;;;;;;5090325;28;20019;-70
2021/12/16 07:11:58;;;;;;;215.48;97.00;;;;;;;;;;5100537;28;20028;-71
2021/12/16 07:14:35;;;;;;;251.20;106.57;;;;;;;;;;5104357;28;20031;-72
2021/12/16 07:17:04;;;;;;;211.93;100.45;;;;;;;;;;5103269;28;20240;-73
2021/12/16 07:19:33;;;;;;;240.07;103.18;;;;;;;;;;5098075;28;20028;-70
2021/12/16 07:22:00;;;;;;;229.18;101.07;;;;;;;;;;5104993;28;20023;-70
2021/12/16 07:24:26;;;;;;;227.60;103.57;;;;;;;;;;5103333;28;20019;-72
2021/12/16 07:26:52;;;;;;;238.55;100.72;;;;;;;;;;5108849;28;20149;-73
2021/12/16 07:29:19;;;;;;;247.95;103.68;;;;;;;;;;5105221;28;20035;-69
2021/12/16 07:31:45;;;;;;;239.60;100.75;;;;;;;;;;5103886;28;20038;-71
2021/12/16 07:34:13;;;;;;;238.40;103.45;;;;;;;;;;5106216;28;20464;-70
2021/12/16 07:36:42;;;;;;;236.52;100.05;;;;;;;;;;5103941;28;20027;-70
2021/12/16 07:39:09;;;;;;;247.27;107.75;;;;;;;;;;5099126;28;20334;-71
2021/12/16 07:41:38;;;;;;;250.75;104.65;;;;;;;;;;5099023;28;20636;-71
2021/12/16 07:44:10;;;;;;;240.02;105.22;;;;;;;;;;5099416;28;20043;-71
2021/12/16 07:46:50;;;;;;;241.02;105.22;;;;;;;;;;5103309;28;20156;-70
2021/12/16 07:49:18;;;;;;;229.57;101.63;;;;;;;;;;5099113;27;20063;-71
2021/12/16 07:51:45;;;;;;;222.13;103.40;;;;;;;;;;5100808;28;20038;-70
2021/12/16 07:54:13;;;;;;;222.20;98.80;;;;;;;;;;5102852;28;20073;-70
2021/12/16 07:56:40;;;;;;;235.25;102.88;;;;;;;;;;5102214;28;20114;-70
2021/12/16 07:59:08;;;;;;;235.35;103.60;;;;;;;;;;5105376;28;20032;-69
2021/12/16 08:01:35;;;;;;;222.40;99.20;;;;;;;;;;5101457;28;20019;-70
2021/12/16 08:04:01;;;;;;;233.20;104.72;;;;;;;;;;5100992;28;20051;-70
2021/12/16 08:06:28;;;;;;;221.85;103.82;;;;;;;;;;5106211;28;20028;-70
2021/12/16 08:08:58;;;;;;;227.68;101.38;;;;;;;;;;5107131;27;20474;-70
2021/12/16 08:11:25;;;;;;;233.68;105.60;;;;;;;;;;5100326;27;20519;-70
2021/12/16 08:13:52;;;;;;;233.45;103.20;;;;;;;;;;5103093;28;20043;-70
2021/12/16 08:16:22;;;;;;;227.93;109.40;;;;;;;;;;5101867;28;20436;-70
2021/12/16 08:18:52;;;;;;;237.40;109.22;;;;;;;;;;5100090;28;20020;-70
2021/12/16 08:21:18;;;;;;;224.93;104.53;;;;;;;;;;5103616;28;20396;-72
2021/12/16 08:23:45;;;;;;;235.68;109.40;;;;;;;;;;5103146;28;20020;-71
2021/12/16 08:26:12;;;;;;;243.02;110.03;;;;;;;;;;5103349;28;20544;-70
2021/12/16 08:28:39;;;;;;;234.75;106.95;;;;;;;;;;5101146;28;20551;-71
2021/12/16 08:31:06;;;;;;;246.00;115.00;;;;;;;;;;5098353;28;20028;-71
2021/12/16 08:33:33;;;;;;;242.70;110.18;;;;;;;;;;5105739;28;20055;-71
2021/12/16 08:36:00;;;;;;;232.95;109.05;;;;;;;;;;5099754;28;20120;-71
2021/12/16 08:38:26;;;;;;;230.93;110.55;;;;;;;;;;5093670;28;20040;-71
2021/12/16 08:40:54;;;;;;;236.98;110.95;;;;;;;;;;5098233;28;20494;-71
2021/12/16 08:43:21;;;;;;;230.10;107.05;;;;;;;;;;5098024;28;20606;-71
2021/12/16 08:45:47;;;;;;;245.82;111.38;;;;;;;;;;5104734;28;20024;-70
2021/12/16 08:48:14;;;;;;;229.70;106.28;;;;;;;;;;5101190;28;20483;-70
2021/12/16 08:50:44;;;;;;;229.18;107.90;;;;;;;;;;5101339;27;20565;-70
2021/12/16 08:53:11;;;;;;;229.07;110.65;;;;;;;;;;5101998;28;20660;-71
2021/12/16 08:55:39;;;;;;;232.27;109.57;;;;;;;;;;5107633;27;20027;-70
2021/12/16 08:58:06;;;;;;;236.18;110.43;;;;;;;;;;5105207;28;20032;-71
2021/12/16 09:00:37;;;;;;;241.07;111.60;;;;;;;;;;5102782;28;20015;-70
2021/12/16 09:03:04;;;;;;;256.77;116.55;;;;;;;;;;5103493;28;20028;-72
2021/12/16 09:05:30;;;;;;;241.00;114.15;;;;;;;;;;5104479;28;20500;-74
2021/12/16 09:07:57;;;;;;;248.13;116.68;;;;;;;;;;5102360;28;20047;-71
2021/12/16 09:10:27;;;;;;;241.43;115.93;;;;;;;;;;5102968;28;20031;-70
2021/12/16 09:13:04;;;;;;;248.27;118.10;;;;;;;;;;5102254;28;20039;-71
2021/12/16 09:15:48;;;;;;;254.48;119.80;;;;;;;;;;5102325;28;20031;-69
2021/12/16 09:18:17;;;;;;;258.63;119.38;;;;;;;;;;5099637;28;20479;-72
2021/12/16 09:20:44;;;;;;;257.92;122.90;;;;;;;;;;5104112;28;20024;-72
2021/12/16 09:23:11;;;;;;;256.92;120.05;;;;;;;;;;5101009;28;20028;-71
2021/12/16 09:25:38;;;;;;;251.73;118.65;;;;;;;;;;5102356;28;20055;-70
2021/12/16 09:28:04;;;;;;;261.23;122.90;;;;;;;;;;5098934;28;20028;-73
2021/12/16 09:30:34;;;;;;;255.48;121.28;;;;;;;;;;5103949;28;20130;-70
2021/12/16 09:33:01;;;;;;;273.90;126.28;;;;;;;;;;5103037;28;20046;-71
2021/12/16 09:35:29;;;;;;;272.58;123.82;;;;;;;;;;5105225;28;20027;-71
2021/12/16 09:37:57;;;;;;;276.13;127.38;;;;;;;;;;5105561;28;20047;-72
2021/12/16 09:40:27;;;;;;;281.55;123.93;;;;;;;;;;5098686;28;20024;-73
2021/12/16 09:42:53;;;;;;;283.08;123.82;;;;;;;;;;5103688;28;20047;-72
2021/12/16 09:45:21;;;;;;;278.05;126.75;;;;;;;;;;5097411;28;20034;-74
2021/12/16 09:47:48;;;;;;;278.75;125.38;;;;;;;;;;5099789;28;20036;-73
2021/12/16 09:50:19;;;;;;;283.98;126.63;;;;;;;;;;5110278;28;20032;-73
2021/12/16 09:52:46;;;;;;;284.70;123.65;;;;;;;;;;5106146;27;20031;-72
2021/12/16 09:55:12;;;;;;;283.55;130.38;;;;;;;;;;5110312;27;20024;-71
2021/12/16 09:57:39;;;;;;;296.15;128.00;;;;;;;;;;5107175;27;20534;-71
2021/12/16 10:00:11;;;;;;;300.27;127.88;;;;;;;;;;5108501;27;20593;-72
2021/12/16 10:02:38;;;;;;;307.63;133.15;;;;;;;;;;5101622;28;20031;-73
2021/12/16 10:05:06;;;;;;;319.88;133.68;;;;;;;;;;5099684;28;20042;-73
2021/12/16 10:07:33;;;;;;;320.85;135.25;;;;;;;;;;5100717;28;20053;-72
2021/12/16 10:10:00;;;;;;;314.27;135.25;;;;;;;;;;5100597;28;20162;-72
2021/12/16 10:12:32;;;;;;;323.05;137.95;;;;;;;;;;5100687;28;20034;-71
2021/12/16 10:15:04;;;;;;;320.38;132.77;;;;;;;;;;5106941;28;20032;-73
2021/12/16 10:17:33;;;;;;;306.05;131.10;;;;;;;;;;5107784;28;20476;-73
2021/12/16 10:20:11;;;;;;;303.35;133.20;;;;;;;;;;5110046;28;20059;-72
2021/12/16 10:22:40;;;;;;;318.70;137.23;;;;;;;;;;5105759;28;20031;-73
2021/12/16 10:25:29;;;;;;;338.98;139.35;;;;;;;;;;5107292;28;20103;-74
2021/12/16 10:28:10;;;;;;;316.95;136.93;;;;;;;;;;5109567;28;20028;-73
2021/12/16 10:30:40;;;;;;;335.27;140.27;;;;;;;;;;5108710;28;20116;-72
2021/12/16 10:33:18;;;;;;;315.23;137.75;;;;;;;;;;5108814;28;20070;-72
2021/12/16 10:35:47;;;;;;;318.15;133.02;;;;;;;;;;5106941;28;20333;-72
2021/12/16 10:38:15;;;;;;;302.38;133.43;;;;;;;;;;5104844;28;20051;-71
2021/12/16 10:40:43;;;;;;;306.50;125.47;;;;;;;;;;5105908;28;20028;-71
2021/12/16 10:43:32;;;;;;;325.90;137.07;;;;;;;;;;5105535;28;20068;-72
2021/12/16 10:46:08;;;;;;;303.85;133.77;;;;;;;;;;5105852;28;20131;-69
2021/12/16 10:48:40;;;;;;;309.75;133.18;;;;;;;;;;5106244;28;20049;-71
2021/12/16 10:51:21;;;;;;;316.17;135.35;;;;;;;;;;5108201;28;20035;-69
2021/12/16 10:53:50;;;;;;;303.90;135.85;;;;;;;;;;5108779;28;20039;-71
2021/12/16 10:56:18;;;;;;;321.08;137.02;;;;;;;;;;5103642;28;20343;-69
2021/12/16 10:58:53;;;;;;;320.65;141.88;;;;;;;;;;5102272;28;20032;-70
2021/12/16 11:01:31;;;;;;;318.13;140.02;;;;;;;;;;5099437;28;20036;-70
2021/12/16 11:03:58;;;;;;;317.05;135.38;;;;;;;;;;5102110;28;20408;-70
2021/12/16 11:06:32;;;;;;;312.35;137.93;;;;;;;;;;5097590;28;20024;-73
2021/12/16 11:09:17;;;;;;;333.25;139.70;;;;;;;;;;5101684;28;20024;-71
2021/12/16 11:11:44;;;;;;;338.50;141.50;;;;;;;;;;5094289;28;20051;-70
2021/12/16 11:14:10;;;;;;;342.27;148.07;;;;;;;;;;5102303;28;20660;-69
2021/12/16 11:16:37;;;;;;;319.67;140.18;;;;;;;;;;5100559;28;20472;-70
2021/12/16 11:19:05;;;;;;;342.52;144.25;;;;;;;;;;5103992;28;20131;-71
2021/12/16 11:21:39;;;;;;;353.50;154.50;;;;;;;;;;5102434;28;20465;-72
2021/12/16 11:24:26;;;;;;;340.90;146.05;;;;;;;;;;5106479;28;20036;-71
2021/12/16 11:26:52;;;;;;;361.27;154.68;;;;;;;;;;5102708;28;20034;-69
2021/12/16 11:32:36;;;;;;;401.13;169.35;;;;;;;;;;5094930;28;20160;-71
2021/12/16 11:35:22;;;;;;;393.07;170.47;;;;;;;;;;5102988;28;20030;-72
2021/12/16 11:37:48;;;;;;;398.10;173.73;;;;;;;;;;5103259;28;20430;-71
2021/12/16 11:40:15;;;;;;;389.80;168.83;;;;;;;;;;5103836;28;20042;-71
2021/12/16 11:42:42;;;;;;;383.10;166.37;;;;;;;;;;5104818;28;20051;-69
2021/12/16 11:45:08;;;;;;;393.37;174.73;;;;;;;;;;5104111;28;20419;-71
2021/12/16 11:47:35;;;;;;;416.50;185.23;;;;;;;;;;5104594;28;20088;-70
2021/12/16 11:50:04;;;;;;;392.83;178.60;;;;;;;;;;5100844;28;20047;-71
2021/12/16 11:52:36;;;;;;;399.57;179.60;;;;;;;;;;5097807;28;20035;-70
2021/12/16 11:55:22;;;;;;;434.77;187.13;;;;;;;;;;5095466;28;20501;-71
2021/12/16 11:57:51;;;;;;;419.87;182.43;;;;;;;;;;5097981;28;20031;-71
2021/12/16 12:00:43;;;;;;;422.83;184.87;;;;;;;;;;5102658;27;20028;-71
2021/12/16 12:03:13;;;;;;;438.93;191.67;;;;;;;;;;5100974;28;20040;-70
2021/12/16 12:05:42;;;;;;;384.00;170.23;;;;;;;;;;5103489;28;20461;-70
2021/12/16 12:08:09;;;;;;;404.40;173.93;;;;;;;;;;5102917;28;20042;-70
2021/12/16 12:10:36;;;;;;;398.27;173.13;;;;;;;;;;5097419;28;20528;-71
2021/12/16 12:13:06;;;;;;;399.13;177.60;;;;;;;;;;5097345;28;20031;-71
2021/12/16 12:15:33;;;;;;;405.73;181.17;;;;;;;;;;5096251;28;20422;-71
2021/12/16 12:17:59;;;;;;;398.57;184.03;;;;;;;;;;5100032;28;20032;-72
2021/12/16 12:20:27;;;;;;;414.10;195.20;;;;;;;;;;5102127;28;20061;-70
2021/12/16 12:22:54;;;;;;;443.97;193.03;;;;;;;;;;5103404;28;20037;-70
2021/12/16 12:25:21;;;;;;;447.60;199.03;;;;;;;;;;5104612;27;20031;-71
2021/12/16 12:27:48;;;;;;;439.80;195.80;;;;;;;;;;5102038;28;20043;-71
2021/12/16 12:30:15;;;;;;;445.10;198.40;;;;;;;;;;5103347;28;20042;-74
2021/12/16 12:32:44;;;;;;;448.30;199.97;;;;;;;;;;5097935;28;20843;-71
2021/12/16 12:35:13;;;;;;;447.43;203.93;;;;;;;;;;5097998;28;20047;-72
2021/12/16 12:37:41;;;;;;;440.93;196.83;;;;;;;;;;5100075;28;20144;-69
2021/12/16 12:40:12;;;;;;;445.57;201.00;;;;;;;;;;5098551;28;20027;-71
2021/12/16 12:42:39;;;;;;;399.90;184.67;;;;;;;;;;5102912;28;20052;-72
2021/12/16 12:45:08;;;;;;;409.93;193.67;;;;;;;;;;5099043;28;20035;-70
2021/12/16 12:47:36;;;;;;;434.70;190.37;;;;;;;;;;5097388;28;20035;-69
2021/12/16 12:50:11;;;;;;;434.13;203.53;;;;;;;;;;5094248;28;20362;-70
2021/12/16 12:52:38;;;;;;;447.10;209.93;;;;;;;;;;5101588;28;20035;-69
2021/12/16 12:55:07;;;;;;;433.47;201.93;;;;;;;;;;5102018;28;20472;-69
2021/12/16 12:57:35;;;;;;;437.00;198.07;;;;;;;;;;5100391;28;20411;-72
2021/12/16 13:00:03;;;;;;;438.93;197.90;;;;;;;;;;5105730;28;20554;-71
2021/12/16 13:02:34;;;;;;;459.83;209.53;;;;;;;;;;5104185;28;20023;-73
2021/12/16 13:05:00;;;;;;;492.97;239.87;;;;;;;;;;5104131;28;20031;-73
2021/12/16 13:07:34;;;;;;;491.27;245.60;;;;;;;;;;5106996;28;20069;-69
2021/12/16 13:10:10;;;;;;;467.80;230.47;;;;;;;;;;5106520;27;20027;-69
2021/12/16 13:12:40;;;;;;;473.83;228.23;;;;;;;;;;5105269;28;20035;-70
2021/12/16 13:15:20;;;;;;;474.90;231.37;;;;;;;;;;5109436;28;20035;-70
2021/12/16 13:23:34;;;;;;;581.03;299.50;;;;;;;;;;5108725;28;20047;-69
2021/12/16 13:29:02;;;;;;;584.83;308.80;;;;;;;;;;5106335;28;20105;-70
2021/12/16 13:31:38;;;;;;;600.60;330.97;;;;;;;;;;5104316;28;20122;-70
2021/12/16 13:34:05;;;;;;;613.10;347.40;;;;;;;;;;5107458;28;20763;-72
2021/12/16 13:36:40;;;;;;;631.67;350.23;;;;;;;;;;5107434;27;20101;-71
2021/12/16 13:39:16;;;;;;;634.30;355.57;;;;;;;;;;5109633;28;20544;-72
2021/12/16 13:41:55;;;;;;;614.47;338.07;;;;;;;;;;5108332;28;20027;-70
2021/12/16 13:44:35;;;;;;;632.07;347.70;;;;;;;;;;5112875;28;20393;-70
2021/12/16 14:00:03;;;;;;;580.40;305.43;;;;;;;;;;5110175;28;20034;-69
2021/12/16 14:01:50;;;;;;;552.57;274.97;;;;;;;;;;5109843;28;20044;-69
2021/12/16 14:10:11;;;;;;;609.00;330.43;;;;;;;;;;5109728;28;20034;-69
2021/12/16 14:15:22;;;;;;;601.43;327.80;;;;;;;;;;5106988;28;20514;-70
2021/12/16 14:23:11;;;;;;;548.27;283.00;;;;;;;;;;5108064;28;20112;-72
2021/12/16 14:41:36;;;;;;;480.57;213.40;;;;;;;;;;5104587;28;20361;-70
2021/12/16 14:45:07;;;;;;;437.33;188.43;;;;;;;;;;5103146;28;20208;-70
2021/12/16 14:47:01;;;;;;;394.87;174.03;;;;;;;;;;5106930;28;20618;-69
2021/12/16 14:49:29;;;;;;;381.70;161.07;;;;;;;;;;5107445;28;20069;-69
2021/12/16 14:51:58;;;;;;;418.20;171.70;;;;;;;;;;5108905;28;20027;-69
2021/12/16 14:54:25;;;;;;;456.20;180.67;;;;;;;;;;5107692;28;20125;-69
2021/12/16 14:56:57;;;;;;;425.13;175.73;;;;;;;;;;5108279;28;20031;-69
2021/12/16 14:59:30;;;;;;;413.70;183.20;;;;;;;;;;5108696;28;20020;-70
2021/12/16 15:02:00;;;;;;;381.67;158.60;;;;;;;;;;5109286;27;20031;-70
2021/12/16 15:04:29;;;;;;;433.93;173.47;;;;;;;;;;5102552;28;20632;-70
2021/12/16 15:07:05;;;;;;;394.13;161.40;;;;;;;;;;5105575;28;20035;-71
2021/12/16 15:09:35;;;;;;;362.43;148.17;;;;;;;;;;5108768;28;20644;-68
2021/12/16 15:12:14;;;;;;;346.00;141.90;;;;;;;;;;5107985;28;20027;-73
2021/12/16 15:17:50;;;;;;;355.37;141.40;;;;;;;;;;5108637;28;20031;-70
2021/12/16 15:44:47;;;;;;;330.90;139.07;;;;;;;;;;5108735;28;20054;-71
2021/12/16 15:47:14;;;;;;;344.67;141.23;;;;;;;;;;5108292;28;20063;-69
2021/12/16 15:49:40;;;;;;;344.63;149.20;;;;;;;;;;5109366;28;20469;-70
2021/12/16 15:52:06;;;;;;;349.87;146.33;;;;;;;;;;5109059;28;20366;-70
2021/12/16 15:54:36;;;;;;;329.93;141.40;;;;;;;;;;5104017;28;20028;-69
2021/12/16 15:57:03;;;;;;;322.13;143.17;;;;;;;;;;5101166;27;20228;-70
2021/12/16 15:59:30;;;;;;;315.13;140.93;;;;;;;;;;5105099;28;20088;-70
2021/12/16 16:01:58;;;;;;;305.77;133.83;;;;;;;;;;5106327;28;20389;-69
2021/12/16 16:04:32;;;;;;;296.33;135.97;;;;;;;;;;5097969;28;20115;-70
2021/12/16 16:07:18;;;;;;;291.13;130.10;;;;;;;;;;5105296;28;20409;-68
2021/12/16 16:09:46;;;;;;;322.20;147.67;;;;;;;;;;5101499;28;20039;-70
2021/12/16 16:12:17;;;;;;;324.20;153.30;;;;;;;;;;5105050;28;20027;-72
2021/12/16 16:14:49;;;;;;;344.90;157.43;;;;;;;;;;5103672;28;20130;-71
2021/12/16 16:17:18;;;;;;;304.63;148.07;;;;;;;;;;5097543;28;20027;-70
2021/12/16 16:19:46;;;;;;;285.27;141.30;;;;;;;;;;5104617;28;20101;-70
2021/12/16 16:22:13;;;;;;;294.90;142.23;;;;;;;;;;5107340;28;20073;-71
2021/12/16 16:24:41;;;;;;;295.23;140.40;;;;;;;;;;5108370;28;20116;-70
2021/12/16 16:27:13;;;;;;;292.07;139.37;;;;;;;;;;5104795;28;20035;-69
2021/12/16 16:29:44;;;;;;;282.97;136.07;;;;;;;;;;5110604;28;20043;-69
2021/12/16 16:32:12;;;;;;;267.00;136.90;;;;;;;;;;5110778;28;20444;-69
2021/12/16 16:34:58;;;;;;;298.57;139.50;;;;;;;;;;5106985;28;20027;-71
2021/12/16 16:37:29;;;;;;;273.57;133.23;;;;;;;;;;5108569;28;20202;-71
2021/12/16 16:39:58;;;;;;;264.33;125.30;;;;;;;;;;5110378;28;20396;-69
2021/12/16 16:42:33;;;;;;;253.97;121.67;;;;;;;;;;5108627;28;20057;-70
2021/12/16 16:44:59;;;;;;;263.17;126.00;;;;;;;;;;5108420;28;20140;-70
2021/12/16 16:47:39;;;;;;;267.50;127.50;;;;;;;;;;5110287;28;20164;-70
2021/12/16 16:50:07;;;;;;;262.27;126.47;;;;;;;;;;5110165;28;20039;-69
2021/12/16 16:52:42;;;;;;;257.77;125.23;;;;;;;;;;5107465;28;20030;-70
2021/12/16 16:55:14;;;;;;;266.80;130.53;;;;;;;;;;5109278;28;20026;-69
2021/12/16 16:57:47;;;;;;;265.83;122.37;;;;;;;;;;5109819;28;20027;-70
2021/12/16 17:00:23;;;;;;;262.17;127.13;;;;;;;;;;5106440;28;20032;-70
2021/12/16 17:02:51;;;;;;;260.00;123.57;;;;;;;;;;5104791;28;20419;-69
2021/12/16 17:05:22;;;;;;;249.37;125.20;;;;;;;;;;5107764;28;20119;-69
2021/12/16 17:07:54;;;;;;;250.30;124.10;;;;;;;;;;5109878;28;20465;-69
2021/12/16 17:10:22;;;;;;;270.20;128.73;;;;;;;;;;5104881;28;20024;-69
2021/12/16 17:12:49;;;;;;;255.57;124.07;;;;;;;;;;5095115;28;20040;-69
2021/12/16 17:18:17;;;;;;;264.53;127.30;;;;;;;;;;5079389;28;20123;-70
2021/12/16 17:20:44;;;;;;;263.80;128.83;;;;;;;;;;5112234;28;20343;-69
2021/12/16 17:23:13;;;;;;;258.53;122.70;;;;;;;;;;5113200;28;20408;-69
2021/12/16 17:25:40;;;;;;;264.73;128.13;;;;;;;;;;5112751;28;20067;-69
2021/12/16 17:28:06;;;;;;;251.20;122.60;;;;;;;;;;5112832;28;20024;-69
2021/12/16 17:30:35;;;;;;;259.53;122.37;;;;;;;;;;5111120;28;20034;-69
2021/12/16 17:33:01;;;;;;;259.33;125.80;;;;;;;;;;5110322;28;20035;-70
2021/12/16 17:35:32;;;;;;;242.77;121.40;;;;;;;;;;5108960;28;20024;-70
2021/12/16 17:38:11;;;;;;;282.70;138.97;;;;;;;;;;5108982;28;20461;-68
2021/12/16 17:40:43;;;;;;;270.87;136.07;;;;;;;;;;5112077;28;20466;-71
2021/12/16 17:43:11;;;;;;;280.87;138.57;;;;;;;;;;5111925;28;20044;-68
2021/12/16 17:45:40;;;;;;;291.43;141.33;;;;;;;;;;5111271;28;20035;-70
2021/12/16 17:48:08;;;;;;;294.30;144.63;;;;;;;;;;5111056;28;20027;-70
2021/12/16 17:50:37;;;;;;;305.40;153.00;;;;;;;;;;5109567;28;20400;-70
2021/12/16 17:53:04;;;;;;;333.13;158.57;;;;;;;;;;5112435;28;20135;-69
2021/12/16 17:55:35;;;;;;;302.73;145.13;;;;;;;;;;5115953;28;20384;-70
2021/12/16 17:58:09;;;;;;;314.13;158.43;;;;;;;;;;5115266;28;20038;-70
2021/12/16 18:00:41;;;;;;;370.27;188.33;;;;;;;;;;5116510;28;20035;-70
2021/12/16 18:03:08;;;;;;;331.67;169.23;;;;;;;;;;5115596;28;20026;-70
2021/12/16 18:05:50;;;;;;;348.87;172.53;;;;;;;;;;5114146;28;20099;-69